Hamlin, New York
Current Conditions -  °F | °C
As of 3:54 AM on Monday 20 Oct 2014 (Local Time) from KROC Reporting Station
Overcast Overcast  
Wind Chill: 37°   Ceiling: 3300
Heat Index: 41°   Visibility: 10mi
Dew Point: 35°   Wind: 6mph
Humidity: 79%   Direction: 220°SW
Pressure: 29.99"   Gusts: NA
Location:  43.3°N, 77.92°W
Report Text: KROC 200754Z 22005KT 10SM BKN033 OVC100 05/02 A2999 RMK AO2 SLP163 T00500017
Loading
Personal Weather Stations






























Interactive Weather Map
Tropical Storm Tracking
New forecast layout! Learn more

10-Day Weather Forecast

Advertisements
Track Severe Weather on mobile